Time;durP1;ratioP1;P1;durP2;ratioP2;P2;SDS_P1;SDS_P2;PMS_P1;PMS_P2;Temp;Humidity;BMP_temperature;BMP_pressure;BME280_temperature;BME280_humidity;BME280_pressure;Samples;Min_cycle;Max_cycle;Signal;HPM_P1;HPM_P2
2024/02/21 00:01:05;;;;;;;;;;;;;;;-0.98;100.00;97935.25;110440;1241;69860;-61
2024/02/21 00:03:45;;;;;;;;;;;;;;;-0.97;100.00;97933.88;110387;1241;59689;-61
2024/02/21 00:06:13;;;;;;;;;;;;;;;-0.96;100.00;97938.66;110490;1239;59670;-61
2024/02/21 00:08:42;;;;;;;;;;;;;;;-0.95;100.00;97938.13;110616;1242;71345;-61
2024/02/21 00:11:11;;;;;;;;;;;;;;;-0.94;100.00;97935.02;110468;1241;69182;-61
2024/02/21 00:13:40;;;;;;;;;;;;;;;-0.95;100.00;97932.82;110530;1241;69249;-61
2024/02/21 00:16:11;;;;;;;;;;;;;;;-0.95;100.00;97929.75;110516;1241;59696;-61
2024/02/21 00:18:40;;;;;;;;;;;;;;;-0.95;100.00;97930.61;110447;1241;59703;-61
2024/02/21 00:21:09;;;;;;;;;;;;;;;-0.93;100.00;97928.66;110487;1242;71212;-61
2024/02/21 00:23:37;;;;;;;;;;;;;;;-0.93;100.00;97921.14;110675;1239;69659;-61
2024/02/21 00:26:07;;;;;;;;;;;;;;;-0.94;100.00;97921.17;110470;1238;70194;-61
2024/02/21 00:28:36;;;;;;;;;;;;;;;-0.96;100.00;97918.64;110438;1240;60136;-61
2024/02/21 00:31:05;;;;;;;;;;;;;;;-0.97;100.00;97917.79;110440;1241;59711;-61
2024/02/21 00:33:33;;;;;;;;;;;;;;;-0.96;100.00;97918.98;110486;1238;72243;-61
2024/02/21 00:36:02;;;;;;;;;;;;;;;-0.96;100.00;97920.88;110385;1241;69170;-61
2024/02/21 00:38:31;;;;;;;;;;;;;;;-0.93;100.00;97918.92;110350;1239;69098;-61
2024/02/21 00:41:00;;;;;;;;;;;;;;;-0.89;100.00;97917.47;110370;1241;59999;-61
2024/02/21 00:43:29;;;;;;;;;;;;;;;-0.84;100.00;97917.90;110348;1242;59691;-61
2024/02/21 00:45:58;;;;;;;;;;;;;;;-0.79;100.00;97912.84;110390;1241;72108;-61
2024/02/21 00:48:27;;;;;;;;;;;;;;;-0.72;100.00;97915.09;110341;1241;68740;-62
2024/02/21 00:50:55;;;;;;;;;;;;;;;-0.67;100.00;97913.63;110234;1241;68290;-61
2024/02/21 00:53:24;;;;;;;;;;;;;;;-0.65;100.00;97909.63;110345;1240;59742;-62
2024/02/21 00:55:54;;;;;;;;;;;;;;;-0.61;100.00;97904.95;110336;1241;59685;-61
2024/02/21 00:58:23;;;;;;;;;;;;;;;-0.57;100.00;97900.91;110398;1241;71921;-61
2024/02/21 01:00:53;;;;;;;;;;;;;;;-0.53;100.00;97894.33;110438;1241;69917;-62
2024/02/21 01:03:22;;;;;;;;;;;;;;;-0.50;100.00;97895.66;110449;1238;69133;-61
2024/02/21 01:05:51;;;;;;;;;;;;;;;-0.48;100.00;97896.81;110398;1238;59705;-59
2024/02/21 01:08:20;;;;;;;;;;;;;;;-0.46;100.00;97898.65;110328;1238;59676;-59
2024/02/21 01:10:48;;;;;;;;;;;;;;;-0.42;100.00;97900.62;110474;1238;71294;-62
2024/02/21 01:13:17;;;;;;;;;;;;;;;-0.36;100.00;97895.86;110569;1241;69199;-60
2024/02/21 01:15:46;;;;;;;;;;;;;;;-0.31;100.00;97894.54;110384;1241;68732;-60
2024/02/21 01:18:16;;;;;;;;;;;;;;;-0.25;100.00;97895.63;110430;1241;59747;-60
2024/02/21 01:20:45;;;;;;;;;;;;;;;-0.20;100.00;97890.20;110394;1241;59679;-60
2024/02/21 01:23:13;;;;;;;;;;;;;;;-0.15;100.00;97892.84;110380;1241;70932;-60
2024/02/21 01:25:42;;;;;;;;;;;;;;;-0.11;100.00;97892.05;110439;1241;69131;-60
2024/02/21 01:28:11;;;;;;;;;;;;;;;-0.10;100.00;97883.64;110442;1238;69675;-60
2024/02/21 01:30:40;;;;;;;;;;;;;;;-0.09;100.00;97882.24;110428;1238;59788;-60
2024/02/21 01:33:09;;;;;;;;;;;;;;;-0.06;100.00;97882.34;110392;1241;59676;-60
2024/02/21 01:35:38;;;;;;;;;;;;;;;-0.04;100.00;97880.24;110408;1240;71914;-60
2024/02/21 01:38:07;;;;;;;;;;;;;;;-0.05;100.00;97881.64;110443;1238;69078;-60
2024/02/21 01:40:37;;;;;;;;;;;;;;;-0.06;100.00;97883.54;110450;1238;69268;-60
2024/02/21 01:43:15;;;;;;;;;;;;;;;-0.10;100.00;97879.85;110415;1238;59719;-60
2024/02/21 01:45:48;;;;;;;;;;;;;;;-0.13;100.00;97878.23;110458;1241;59647;-60
2024/02/21 01:48:18;;;;;;;;;;;;;;;-0.21;100.00;97877.90;110431;1240;71961;-60
2024/02/21 01:50:47;;;;;;;;;;;;;;;-0.27;100.00;97879.05;110376;1241;70312;-60
2024/02/21 01:53:21;;;;;;;;;;;;;;;-0.31;100.00;97875.21;110348;1241;69277;-60
2024/02/21 01:55:49;;;;;;;;;;;;;;;-0.33;100.00;97874.89;110353;1241;59670;-60
2024/02/21 01:58:18;;;;;;;;;;;;;;;-0.32;100.00;97874.02;110345;1242;59638;-60
2024/02/21 02:00:48;;;;;;;;;;;;;;;-0.31;100.00;97870.24;110236;1242;71968;-60
2024/02/21 02:03:16;;;;;;;;;;;;;;;-0.28;100.00;97871.36;110360;1241;69841;-60
2024/02/21 02:05:46;;;;;;;;;;;;;;;-0.24;100.00;97870.76;110429;1240;69875;-60
2024/02/21 02:08:16;;;;;;;;;;;;;;;-0.23;100.00;97865.09;110420;1241;59694;-60
2024/02/21 02:10:44;;;;;;;;;;;;;;;-0.22;100.00;97858.20;110386;1241;59756;-60
2024/02/21 02:13:13;;;;;;;;;;;;;;;-0.21;100.00;97856.63;110430;1239;71971;-59
2024/02/21 02:15:42;;;;;;;;;;;;;;;-0.18;100.00;97856.05;110421;1241;69941;-60
2024/02/21 02:18:12;;;;;;;;;;;;;;;-0.14;100.00;97854.10;110410;1240;68110;-60
2024/02/21 02:20:40;;;;;;;;;;;;;;;-0.12;100.00;97857.30;110314;1241;59712;-60
2024/02/21 02:23:28;;;;;;;;;;;;;;;-0.09;100.00;97857.73;110366;1241;59657;-60
2024/02/21 02:25:57;;;;;;;;;;;;;;;-0.06;100.00;97858.02;110365;1242;71355;-60
2024/02/21 02:28:26;;;;;;;;;;;;;;;-0.02;100.00;97859.30;110285;1242;69050;-60
2024/02/21 02:30:55;;;;;;;;;;;;;;;0.02;100.00;97860.55;110358;1241;69166;-60
2024/02/21 02:33:24;;;;;;;;;;;;;;;0.05;100.00;97862.55;110489;1239;59685;-61
2024/02/21 02:35:54;;;;;;;;;;;;;;;0.07;100.00;97861.31;110516;1239;59655;-60
2024/02/21 02:38:23;;;;;;;;;;;;;;;0.08;100.00;97864.53;110488;1238;71940;-61
2024/02/21 02:40:51;;;;;;;;;;;;;;;0.09;100.00;97865.54;110449;1238;69239;-61
2024/02/21 02:43:20;;;;;;;;;;;;;;;0.11;100.00;97866.72;110506;1238;69416;-61
2024/02/21 02:45:49;;;;;;;;;;;;;;;0.12;100.00;97864.10;110385;1238;59681;-61
2024/02/21 02:48:19;;;;;;;;;;;;;;;0.14;100.00;97866.45;110444;1241;59752;-60
2024/02/21 02:50:49;;;;;;;;;;;;;;;0.17;100.00;97868.27;110442;1238;70920;-60
2024/02/21 02:53:18;;;;;;;;;;;;;;;0.20;100.00;97867.17;110392;1241;69126;-60
2024/02/21 02:55:48;;;;;;;;;;;;;;;0.23;100.00;97865.89;110349;1241;68909;-61
2024/02/21 02:58:17;;;;;;;;;;;;;;;0.27;100.00;97862.71;110348;1241;59682;-60
2024/02/21 03:00:45;;;;;;;;;;;;;;;0.31;100.00;97867.60;110439;1241;59728;-60
2024/02/21 03:03:14;;;;;;;;;;;;;;;0.34;100.00;97870.27;110367;1241;71359;-60
2024/02/21 03:05:44;;;;;;;;;;;;;;;0.36;100.00;97872.44;110364;1241;70185;-61
2024/02/21 03:08:12;;;;;;;;;;;;;;;0.38;100.00;97875.63;110515;1241;67775;-61
2024/02/21 03:10:41;;;;;;;;;;;;;;;0.42;100.00;97875.02;110398;1241;59753;-61
2024/02/21 03:13:10;;;;;;;;;;;;;;;0.47;100.00;97872.15;110444;1242;59671;-61
2024/02/21 03:15:39;;;;;;;;;;;;;;;0.53;100.00;97871.69;110376;1241;71298;-61
2024/02/21 03:18:08;;;;;;;;;;;;;;;0.55;100.00;97872.31;110494;1241;69176;-61
2024/02/21 03:20:36;;;;;;;;;;;;;;;0.56;100.00;97873.84;110451;1241;69693;-61
2024/02/21 03:23:05;;;;;;;;;;;;;;;0.57;100.00;97874.33;110472;1240;59808;-61
2024/02/21 03:25:34;;;;;;;;;;;;;;;0.60;100.00;97876.63;110472;1241;59644;-61
2024/02/21 03:28:03;;;;;;;;;;;;;;;0.64;100.00;97876.20;110401;1242;71528;-61
2024/02/21 03:30:33;;;;;;;;;;;;;;;0.70;100.00;97876.70;110476;1241;69066;-61
2024/02/21 03:33:02;;;;;;;;;;;;;;;0.76;100.00;97875.71;110406;1240;68858;-61
2024/02/21 03:35:31;;;;;;;;;;;;;;;0.81;100.00;97878.98;110385;1241;59651;-61
2024/02/21 03:38:00;;;;;;;;;;;;;;;0.85;100.00;97875.64;110424;1241;59641;-61
2024/02/21 03:40:29;;;;;;;;;;;;;;;0.90;100.00;97878.25;110411;1241;72109;-61
2024/02/21 03:42:57;;;;;;;;;;;;;;;0.91;100.00;97875.12;110412;1238;69174;-61
2024/02/21 03:45:26;;;;;;;;;;;;;;;0.89;100.00;97877.92;110606;1240;69938;-61
2024/02/21 03:47:55;;;;;;;;;;;;;;;0.87;100.00;97877.98;110428;1238;59759;-61
2024/02/21 03:50:27;;;;;;;;;;;;;;;0.87;100.00;97880.72;110575;1242;59673;-61
2024/02/21 03:52:58;;;;;;;;;;;;;;;0.86;100.00;97876.29;110545;1239;71962;-61
2024/02/21 03:55:26;;;;;;;;;;;;;;;0.87;100.00;97877.96;110619;1241;69804;-62
2024/02/21 03:57:55;;;;;;;;;;;;;;;0.89;100.00;97877.92;110393;1241;68801;-62
2024/02/21 04:00:24;;;;;;;;;;;;;;;0.89;100.00;97878.45;110535;1238;59740;-60
2024/02/21 04:02:53;;;;;;;;;;;;;;;0.89;100.00;97879.48;110572;1240;59741;-60
2024/02/21 04:05:22;;;;;;;;;;;;;;;0.91;100.00;97879.92;110428;1241;71970;-60
2024/02/21 04:07:51;;;;;;;;;;;;;;;0.94;100.00;97876.42;110422;1239;69309;-63
2024/02/21 04:10:20;;;;;;;;;;;;;;;0.98;100.00;97876.84;110413;1241;70257;-62
2024/02/21 04:12:50;;;;;;;;;;;;;;;1.00;100.00;97870.91;110386;1241;59738;-61
2024/02/21 04:15:19;;;;;;;;;;;;;;;1.05;100.00;97869.96;110463;1241;59660;-61
2024/02/21 04:17:48;;;;;;;;;;;;;;;1.08;100.00;97870.73;110421;1241;71334;-60
2024/02/21 04:20:17;;;;;;;;;;;;;;;1.10;100.00;97872.92;110472;1241;69305;-60
2024/02/21 04:22:46;;;;;;;;;;;;;;;1.10;100.00;97869.81;110480;1241;69548;-60
2024/02/21 04:25:15;;;;;;;;;;;;;;;1.10;100.00;97865.87;110386;1241;59748;-60
2024/02/21 04:27:44;;;;;;;;;;;;;;;1.10;100.00;97868.95;110473;1241;59691;-61
2024/02/21 04:30:12;;;;;;;;;;;;;;;1.13;100.00;97866.66;110399;1239;71358;-61
2024/02/21 04:32:42;;;;;;;;;;;;;;;1.16;100.00;97869.31;110376;1241;69201;-61
2024/02/21 04:35:10;;;;;;;;;;;;;;;1.19;100.00;97871.61;110402;1241;69665;-61
2024/02/21 04:37:39;;;;;;;;;;;;;;;1.22;100.00;97872.23;110368;1241;59736;-61
2024/02/21 04:40:09;;;;;;;;;;;;;;;1.24;100.00;97878.16;110406;1242;59627;-60
2024/02/21 04:42:37;;;;;;;;;;;;;;;1.27;100.00;97875.69;110538;1242;71411;-60
2024/02/21 04:45:07;;;;;;;;;;;;;;;1.30;100.00;97874.75;110451;1241;68956;-60
2024/02/21 04:47:35;;;;;;;;;;;;;;;1.32;100.00;97875.55;110363;1241;69242;-60
2024/02/21 04:50:04;;;;;;;;;;;;;;;1.33;100.00;97873.65;110525;1242;59699;-60
2024/02/21 04:52:33;;;;;;;;;;;;;;;1.33;100.00;97877.23;110502;1240;59639;-61
2024/02/21 04:55:03;;;;;;;;;;;;;;;1.33;100.00;97877.07;110532;1242;69961;-61
2024/02/21 04:57:32;;;;;;;;;;;;;;;1.35;100.00;97876.33;110437;1241;69267;-62
2024/02/21 05:00:01;;;;;;;;;;;;;;;1.35;100.00;97870.83;110416;1240;69111;-61
2024/02/21 05:02:30;;;;;;;;;;;;;;;1.36;100.00;97868.75;110459;1241;59743;-62
2024/02/21 05:04:59;;;;;;;;;;;;;;;1.35;100.00;97871.16;110440;1241;59695;-61
2024/02/21 05:07:28;;;;;;;;;;;;;;;1.35;100.00;97873.06;110371;1239;71343;-62
2024/02/21 05:09:57;;;;;;;;;;;;;;;1.36;100.00;97873.54;110456;1241;70068;-62
2024/02/21 05:12:25;;;;;;;;;;;;;;;1.39;100.00;97873.81;110380;1240;69878;-62
2024/02/21 05:14:54;;;;;;;;;;;;;;;1.41;100.00;97869.61;110379;1241;59805;-62
2024/02/21 05:17:23;;;;;;;;;;;;;;;1.44;100.00;97869.18;110412;1241;59631;-62
2024/02/21 05:19:52;;;;;;;;;;;;;;;1.47;100.00;97870.30;110505;1241;72116;-61
2024/02/21 05:22:22;;;;;;;;;;;;;;;1.51;100.00;97872.09;110477;1241;69066;-62
2024/02/21 05:24:50;;;;;;;;;;;;;;;1.55;100.00;97873.86;110473;1238;69961;-62
2024/02/21 05:27:19;;;;;;;;;;;;;;;1.59;100.00;97872.36;110468;1241;59728;-62
2024/02/21 05:29:48;;;;;;;;;;;;;;;1.63;100.00;97872.93;110462;1249;59660;-61
2024/02/21 05:32:17;;;;;;;;;;;;;;;1.64;100.00;97875.98;110527;1242;71862;-62
2024/02/21 05:34:48;;;;;;;;;;;;;;;1.64;100.00;97876.50;110302;1242;69188;-61
2024/02/21 05:37:17;;;;;;;;;;;;;;;1.66;100.00;97880.74;110376;1241;69323;-61
2024/02/21 05:39:45;;;;;;;;;;;;;;;1.69;100.00;97880.33;110361;1239;59777;-61
2024/02/21 05:42:14;;;;;;;;;;;;;;;1.71;100.00;97879.72;110404;1240;59630;-62
2024/02/21 05:44:43;;;;;;;;;;;;;;;1.74;100.00;97880.34;110364;1241;70877;-61
2024/02/21 05:47:15;;;;;;;;;;;;;;;1.77;100.00;97879.39;110357;1241;69255;-61
2024/02/21 05:49:44;;;;;;;;;;;;;;;1.79;100.00;97883.09;110479;1238;69838;-61
2024/02/21 05:52:13;;;;;;;;;;;;;;;1.82;100.00;97883.56;110475;1241;60140;-61
2024/02/21 05:54:41;;;;;;;;;;;;;;;1.84;100.00;97887.25;110484;1241;59687;-61
2024/02/21 05:57:10;;;;;;;;;;;;;;;1.86;100.00;97883.75;110477;1239;71231;-61
2024/02/21 05:59:40;;;;;;;;;;;;;;;1.89;100.00;97885.90;110484;1241;68397;-61
2024/02/21 06:02:08;;;;;;;;;;;;;;;1.93;100.00;97885.09;110491;1241;68623;-61
2024/02/21 06:04:39;;;;;;;;;;;;;;;1.96;100.00;97881.39;110496;1241;59677;-61
2024/02/21 06:07:08;;;;;;;;;;;;;;;1.99;100.00;97887.30;110553;1241;59650;-61
2024/02/21 06:09:37;;;;;;;;;;;;;;;2.02;100.00;97886.17;110453;1241;71916;-61
2024/02/21 06:12:06;;;;;;;;;;;;;;;2.06;100.00;97887.11;110484;1240;69233;-61
2024/02/21 06:14:35;;;;;;;;;;;;;;;2.09;100.00;97889.26;110396;1241;69505;-61
2024/02/21 06:17:04;;;;;;;;;;;;;;;2.12;100.00;97887.77;109993;1241;612088;-61
2024/02/21 06:19:33;;;;;;;;;;;;;;;2.16;100.00;97887.14;110404;1241;59694;-62
2024/02/21 06:22:07;;;;;;;;;;;;;;;2.21;100.00;97891.96;110404;1241;70622;-61
2024/02/21 06:24:37;;;;;;;;;;;;;;;2.25;100.00;97893.55;110379;1242;69268;-61
2024/02/21 06:27:06;;;;;;;;;;;;;;;2.29;100.00;97894.09;110395;1241;69229;-61
2024/02/21 06:29:38;;;;;;;;;;;;;;;2.33;100.00;97897.08;110368;1241;59770;-62
2024/02/21 06:32:07;;;;;;;;;;;;;;;2.37;100.00;97901.27;110450;1243;59738;-61
2024/02/21 06:34:36;;;;;;;;;;;;;;;2.39;100.00;97896.37;110408;1242;71963;-62
2024/02/21 06:37:04;;;;;;;;;;;;;;;2.43;100.00;97895.36;110375;1240;69210;-62
2024/02/21 06:39:33;;;;;;;;;;;;;;;2.49;100.00;97895.70;110333;1241;69553;-62
2024/02/21 06:42:02;;;;;;;;;;;;;;;2.54;100.00;97892.44;110360;1239;59697;-62
2024/02/21 06:44:35;;;;;;;;;;;;;;;2.61;100.00;97890.66;110377;1240;59737;-62
2024/02/21 06:47:03;;;;;;;;;;;;;;;2.68;100.00;97891.27;110419;1241;71627;-62
2024/02/21 06:49:32;;;;;;;;;;;;;;;2.76;100.00;97893.60;110406;1241;69197;-62
2024/02/21 06:52:03;;;;;;;;;;;;;;;2.83;100.00;97895.94;110412;1240;69254;-62
2024/02/21 06:54:31;;;;;;;;;;;;;;;2.91;100.00;97896.35;110388;1241;59740;-62
2024/02/21 06:57:00;;;;;;;;;;;;;;;3.00;100.00;97895.02;110363;1241;59625;-62
2024/02/21 06:59:29;;;;;;;;;;;;;;;3.10;100.00;97898.12;110428;1241;71296;-62
2024/02/21 07:01:59;;;;;;;;;;;;;;;3.19;100.00;97895.55;110365;1241;68595;-62
2024/02/21 07:04:29;;;;;;;;;;;;;;;3.28;100.00;97897.30;110368;1241;69165;-62
2024/02/21 07:06:58;;;;;;;;;;;;;;;3.37;100.00;97898.17;110385;1241;59677;-62
2024/02/21 07:09:28;;;;;;;;;;;;;;;3.46;100.00;97900.63;110370;1239;59691;-62
2024/02/21 07:12:00;;;;;;;;;;;;;;;3.52;100.00;97903.16;110406;1241;71301;-62
2024/02/21 07:14:29;;;;;;;;;;;;;;;3.59;100.00;97902.22;110463;1240;69685;-62
2024/02/21 07:16:58;;;;;;;;;;;;;;;3.65;100.00;97900.23;110424;1238;69242;-62
2024/02/21 07:19:27;;;;;;;;;;;;;;;3.77;100.00;97900.65;110434;1238;59747;-62
2024/02/21 07:21:57;;;;;;;;;;;;;;;3.88;100.00;97899.93;110388;1241;59709;-62
2024/02/21 07:24:25;;;;;;;;;;;;;;;3.98;100.00;97902.11;110469;1238;72133;-62
2024/02/21 07:26:56;;;;;;;;;;;;;;;4.07;100.00;97904.36;110452;1238;68611;-62
2024/02/21 07:29:25;;;;;;;;;;;;;;;4.16;100.00;97905.04;110425;1241;69912;-61
2024/02/21 07:31:54;;;;;;;;;;;;;;;4.19;100.00;97904.55;110441;1240;59681;-62
2024/02/21 07:34:22;;;;;;;;;;;;;;;4.31;100.00;97903.23;110432;1240;59667;-62
2024/02/21 07:36:51;;;;;;;;;;;;;;;4.45;100.00;97900.77;110448;1241;72089;-62
2024/02/21 07:39:20;;;;;;;;;;;;;;;4.56;100.00;97901.16;110384;1241;69187;-62
2024/02/21 07:41:49;;;;;;;;;;;;;;;4.66;100.00;97899.92;110424;1240;69326;-61
2024/02/21 07:44:17;;;;;;;;;;;;;;;4.73;100.00;97899.30;110524;1240;59666;-63
2024/02/21 07:46:46;;;;;;;;;;;;;;;4.84;100.00;97896.21;110392;1241;59681;-63
2024/02/21 07:49:15;;;;;;;;;;;;;;;4.92;100.00;97892.61;110396;1243;72034;-62
2024/02/21 07:51:44;;;;;;;;;;;;;;;4.96;100.00;97894.52;110488;1238;69389;-62
2024/02/21 07:54:13;;;;;;;;;;;;;;;4.95;100.00;97895.06;110444;1238;69289;-60
2024/02/21 07:56:44;;;;;;;;;;;;;;;4.93;100.00;97897.24;110471;1241;59738;-62
2024/02/21 07:59:14;;;;;;;;;;;;;;;5.02;100.00;97894.40;110564;1240;59747;-62
2024/02/21 08:01:44;;;;;;;;;;;;;;;5.09;100.00;97895.35;110501;1240;69958;-62
2024/02/21 08:04:14;;;;;;;;;;;;;;;5.18;100.00;97891.15;110586;1242;69857;-63
2024/02/21 08:06:45;;;;;;;;;;;;;;;5.32;100.00;97890.88;110468;1241;70012;-62
2024/02/21 08:09:14;;;;;;;;;;;;;;;5.49;100.00;97893.59;110455;1242;59650;-62
2024/02/21 08:11:42;;;;;;;;;;;;;;;5.59;100.00;97890.71;110464;1242;59665;-62
2024/02/21 08:14:12;;;;;;;;;;;;;;;5.64;100.00;97892.41;110506;1238;71326;-61
2024/02/21 08:16:41;;;;;;;;;;;;;;;5.63;100.00;97895.70;110609;1238;69007;-62
2024/02/21 08:19:10;;;;;;;;;;;;;;;5.72;100.00;97896.00;110596;1240;69208;-63
2024/02/21 08:21:39;;;;;;;;;;;;;;;5.81;100.00;97898.52;110414;1242;59759;-60
2024/02/21 08:24:10;;;;;;;;;;;;;;;5.88;100.00;97896.83;110278;1241;59715;-62
2024/02/21 08:26:44;;;;;;;;;;;;;;;5.97;100.00;97893.83;110424;1241;71685;-62
2024/02/21 08:29:13;;;;;;;;;;;;;;;6.05;100.00;97891.73;110397;1241;69405;-62
2024/02/21 08:31:42;;;;;;;;;;;;;;;6.08;100.00;97890.20;110234;1241;69253;-62
2024/02/21 08:34:10;;;;;;;;;;;;;;;6.11;100.00;97891.96;110354;1242;59747;-62
2024/02/21 08:36:40;;;;;;;;;;;;;;;6.09;100.00;97890.32;110384;1241;59648;-62
2024/02/21 08:39:10;;;;;;;;;;;;;;;6.02;100.00;97892.21;110415;1241;71343;-62
2024/02/21 08:41:39;;;;;;;;;;;;;;;6.05;100.00;97892.79;110344;1241;69628;-62
2024/02/21 08:44:27;;;;;;;;;;;;;;;6.24;100.00;97892.06;110332;1241;68823;-62
2024/02/21 08:46:57;;;;;;;;;;;;;;;6.37;100.00;97893.52;110314;1241;59712;-62
2024/02/21 08:49:28;;;;;;;;;;;;;;;6.40;100.00;97892.17;110348;1241;59693;-62
2024/02/21 08:52:03;;;;;;;;;;;;;;;6.46;100.00;97893.92;110337;1241;70789;-61
2024/02/21 08:54:33;;;;;;;;;;;;;;;6.49;100.00;97900.04;110360;1241;69061;-62
2024/02/21 08:57:03;;;;;;;;;;;;;;;6.58;100.00;97898.36;110338;1242;69643;-62
2024/02/21 08:59:32;;;;;;;;;;;;;;;6.55;100.00;97898.02;110345;1242;59743;-62
2024/02/21 09:02:02;;;;;;;;;;;;;;;6.48;100.00;97900.75;110348;1241;59637;-62
2024/02/21 09:04:31;;;;;;;;;;;;;;;6.60;100.00;97898.25;110379;1241;71373;-62
2024/02/21 09:07:00;;;;;;;;;;;;;;;6.70;100.00;97894.87;110337;1241;68813;-62
2024/02/21 09:09:29;;;;;;;;;;;;;;;6.79;100.00;97897.88;110300;1241;69572;-62
2024/02/21 09:12:05;;;;;;;;;;;;;;;6.89;100.00;97895.81;110332;1242;59747;-61
2024/02/21 09:14:34;;;;;;;;;;;;;;;6.99;100.00;97897.05;110368;1241;59744;-62
2024/02/21 09:17:03;;;;;;;;;;;;;;;7.17;100.00;97891.98;110342;1241;71899;-62
2024/02/21 09:19:32;;;;;;;;;;;;;;;7.29;100.00;97899.83;110352;1242;69758;-62
2024/02/21 09:22:01;;;;;;;;;;;;;;;7.44;100.00;97895.40;110357;1241;69716;-62
2024/02/21 09:24:30;;;;;;;;;;;;;;;7.58;100.00;97895.50;110340;1242;59746;-62
2024/02/21 09:26:59;;;;;;;;;;;;;;;7.68;100.00;97895.72;110443;1242;59746;-62
2024/02/21 09:29:28;;;;;;;;;;;;;;;7.75;100.00;97899.33;110334;1241;71413;-61
2024/02/21 09:31:57;;;;;;;;;;;;;;;7.75;100.00;97895.64;110351;1242;69188;-62
2024/02/21 09:34:27;;;;;;;;;;;;;;;7.63;100.00;97898.21;110396;1241;69865;-59
2024/02/21 09:36:57;;;;;;;;;;;;;;;7.78;100.00;97901.25;110366;1242;59777;-61
2024/02/21 09:39:25;;;;;;;;;;;;;;;7.88;100.00;97901.06;110387;1244;59627;-61
2024/02/21 09:41:59;;;;;;;;;;;;;;;7.94;100.00;97902.27;110339;1242;70468;-61
2024/02/21 09:44:32;;;;;;;;;;;;;;;7.99;100.00;97903.54;110382;1241;69169;-61
2024/02/21 09:47:13;;;;;;;;;;;;;;;8.13;100.00;97902.60;110310;1241;70454;-61
2024/02/21 09:49:42;;;;;;;;;;;;;;;8.10;100.00;97900.72;110361;1242;59771;-61
2024/02/21 09:52:13;;;;;;;;;;;;;;;7.93;100.00;97900.75;110352;1241;59769;-61
2024/02/21 09:54:44;;;;;;;;;;;;;;;8.33;100.00;97899.26;110461;1242;71327;-61
2024/02/21 09:57:14;;;;;;;;;;;;;;;8.62;100.00;97902.00;110354;1241;69145;-62
2024/02/21 09:59:43;;;;;;;;;;;;;;;8.93;100.00;97899.70;110338;1241;70102;-61
2024/02/21 10:02:12;;;;;;;;;;;;;;;8.94;100.00;97897.03;110328;1241;59706;-61
2024/02/21 10:04:41;;;;;;;;;;;;;;;8.93;100.00;97889.45;110441;1242;59667;-61
2024/02/21 10:07:11;;;;;;;;;;;;;;;8.80;100.00;97885.83;110222;1241;71388;-61
2024/02/21 10:09:40;;;;;;;;;;;;;;;9.15;100.00;97880.63;110380;1242;69827;-61
2024/02/21 10:12:10;;;;;;;;;;;;;;;9.46;100.00;97878.10;110450;1241;69874;-61
2024/02/21 10:14:40;;;;;;;;;;;;;;;9.31;100.00;97874.27;110457;1242;59695;-62
2024/02/21 10:17:15;;;;;;;;;;;;;;;9.32;100.00;97870.78;110448;1241;59695;-61
2024/02/21 10:19:44;;;;;;;;;;;;;;;9.84;100.00;97865.98;110508;1241;71575;-61
2024/02/21 10:22:15;;;;;;;;;;;;;;;10.19;100.00;97865.36;110497;1242;69071;-62
2024/02/21 10:24:44;;;;;;;;;;;;;;;10.32;97.35;97860.90;110404;1242;70756;-62
2024/02/21 10:27:13;;;;;;;;;;;;;;;10.26;99.20;97857.60;110392;1243;59983;-60
2024/02/21 10:29:42;;;;;;;;;;;;;;;10.55;97.13;97856.61;110433;1241;59739;-63
2024/02/21 10:32:12;;;;;;;;;;;;;;;10.94;98.31;97854.53;110429;1242;70916;-63
2024/02/21 10:34:42;;;;;;;;;;;;;;;11.29;95.56;97847.44;110557;1241;69449;-61
2024/02/21 10:37:12;;;;;;;;;;;;;;;11.48;94.11;97845.61;110466;1242;69086;-61
2024/02/21 10:39:42;;;;;;;;;;;;;;;11.54;90.76;97836.67;110325;1242;59667;-60
2024/02/21 10:42:11;;;;;;;;;;;;;;;11.56;89.26;97840.31;110403;1242;59688;-61
2024/02/21 10:44:41;;;;;;;;;;;;;;;11.38;90.33;97834.62;110380;1241;70615;-61
2024/02/21 10:47:13;;;;;;;;;;;;;;;11.47;88.86;97832.07;110357;1241;69805;-61
2024/02/21 10:49:44;;;;;;;;;;;;;;;11.45;89.95;97832.70;110333;1242;69140;-62
2024/02/21 10:52:15;;;;;;;;;;;;;;;11.41;88.17;97833.02;110342;1242;59634;-61
2024/02/21 10:55:03;;;;;;;;;;;;;;;11.34;89.84;97828.73;110440;1242;59692;-61
2024/02/21 10:57:32;;;;;;;;;;;;;;;11.37;89.46;97827.02;110384;1242;71980;-61
2024/02/21 11:00:01;;;;;;;;;;;;;;;11.32;88.21;97825.56;110316;1242;67708;-61
2024/02/21 11:02:31;;;;;;;;;;;;;;;11.26;87.66;97822.35;110312;1241;69256;-61
2024/02/21 11:05:01;;;;;;;;;;;;;;;11.04;87.83;97820.02;110152;1241;59777;-59
2024/02/21 11:07:32;;;;;;;;;;;;;;;11.32;88.61;97813.58;110315;1239;59667;-61
2024/02/21 11:10:03;;;;;;;;;;;;;;;11.66;85.72;97814.13;110362;1241;71939;-63
2024/02/21 11:12:32;;;;;;;;;;;;;;;11.86;85.51;97807.69;110356;1242;69639;-61
2024/02/21 11:15:08;;;;;;;;;;;;;;;12.56;86.78;97803.59;110412;1242;69858;-62
2024/02/21 11:17:36;;;;;;;;;;;;;;;13.09;81.76;97792.59;110341;1241;59702;-62
2024/02/21 11:20:18;;;;;;;;;;;;;;;13.64;80.67;97787.48;110365;1242;59695;-60
2024/02/21 11:22:48;;;;;;;;;;;;;;;14.44;76.01;97787.64;110332;1242;72099;-59
2024/02/21 11:25:21;;;;;;;;;;;;;;;14.52;66.94;97784.17;110360;1242;69809;-58
2024/02/21 11:27:50;;;;;;;;;;;;;;;14.62;67.26;97777.07;110372;1242;68433;-62
2024/02/21 11:30:26;;;;;;;;;;;;;;;15.27;65.21;97773.25;110408;1244;59700;-61
2024/02/21 11:33:06;;;;;;;;;;;;;;;15.55;61.23;97770.52;110425;1242;59708;-61
2024/02/21 11:35:36;;;;;;;;;;;;;;;16.36;62.47;97772.67;110404;1241;71594;-61
2024/02/21 11:38:16;;;;;;;;;;;;;;;17.04;57.23;97764.66;110406;1239;69034;-61
2024/02/21 11:40:46;;;;;;;;;;;;;;;17.22;56.34;97764.73;110418;1239;68840;-61
2024/02/21 11:43:15;;;;;;;;;;;;;;;17.91;57.61;97758.14;110370;1239;59673;-62
2024/02/21 11:45:44;;;;;;;;;;;;;;;18.19;53.44;97755.08;110496;1242;59686;-62
2024/02/21 11:48:14;;;;;;;;;;;;;;;17.91;53.53;97752.10;110338;1242;71441;-61
2024/02/21 11:50:42;;;;;;;;;;;;;;;17.25;51.46;97747.15;110488;1242;69670;-61
2024/02/21 11:53:12;;;;;;;;;;;;;;;16.56;52.50;97749.53;110129;1240;70413;-62
2024/02/21 11:55:41;;;;;;;;;;;;;;;15.99;53.06;97751.30;110365;1241;59744;-61
2024/02/21 11:58:10;;;;;;;;;;;;;;;15.48;54.88;97752.86;110407;1241;59678;-61
2024/02/21 12:00:38;;;;;;;;;;;;;;;15.08;55.21;97746.12;110353;1242;71822;-60
2024/02/21 12:03:07;;;;;;;;;;;;;;;14.99;55.57;97741.34;110345;1241;69206;-61
2024/02/21 12:05:36;;;;;;;;;;;;;;;15.31;56.31;97741.52;110308;1240;69697;-61
2024/02/21 12:08:05;;;;;;;;;;;;;;;15.76;55.97;97740.73;110341;1241;59692;-63
2024/02/21 12:10:35;;;;;;;;;;;;;;;15.78;52.84;97739.73;110416;1242;60095;-63
2024/02/21 12:13:06;;;;;;;;;;;;;;;15.25;52.59;97736.20;110401;1242;70817;-61
2024/02/21 12:15:35;;;;;;;;;;;;;;;15.24;52.60;97727.39;110399;1242;69664;-61
2024/02/21 12:18:04;;;;;;;;;;;;;;;14.99;53.15;97729.92;110324;1241;69913;-61
2024/02/21 12:20:33;;;;;;;;;;;;;;;14.88;53.52;97723.45;110341;1241;59722;-63
2024/02/21 12:23:03;;;;;;;;;;;;;;;14.64;54.19;97727.19;110310;1242;59683;-61
2024/02/21 12:25:33;;;;;;;;;;;;;;;13.85;57.07;97723.17;110303;1242;71351;-61
2024/02/21 12:28:03;;;;;;;;;;;;;;;14.09;56.41;97724.30;110324;1241;69118;-61
2024/02/21 12:30:34;;;;;;;;;;;;;;;14.70;55.38;97718.82;110371;1242;69099;-62
2024/02/21 12:33:03;;;;;;;;;;;;;;;15.41;54.37;97721.17;110341;1242;59685;-61
2024/02/21 12:35:33;;;;;;;;;;;;;;;16.12;54.39;97719.64;110347;1248;59679;-61
2024/02/21 12:38:03;;;;;;;;;;;;;;;16.65;54.17;97717.02;110349;1240;71206;-61
2024/02/21 12:40:32;;;;;;;;;;;;;;;16.70;51.11;97715.84;110342;1242;69722;-61
2024/02/21 12:43:02;;;;;;;;;;;;;;;16.87;50.33;97713.81;110313;1243;69948;-60
2024/02/21 12:45:31;;;;;;;;;;;;;;;17.20;50.10;97715.94;110352;1242;59683;-61
2024/02/21 12:48:00;;;;;;;;;;;;;;;17.57;48.14;97711.70;110315;1243;59679;-60